sensor_id;sensor_type;location;lat;lon;timestamp;P1;durP1;ratioP1;P2;durP2;ratioP2
44046;SDS011;29713;-33.888;151.150;2023-04-06T00:01:10;4.47;;;1.20;;
44046;SDS011;29713;-33.888;151.150;2023-04-06T00:03:37;4.82;;;1.52;;
44046;SDS011;29713;-33.888;151.150;2023-04-06T00:06:04;4.93;;;1.20;;
44046;SDS011;29713;-33.888;151.150;2023-04-06T00:08:32;6.35;;;1.77;;
44046;SDS011;29713;-33.888;151.150;2023-04-06T00:11:00;4.97;;;1.55;;
44046;SDS011;29713;-33.888;151.150;2023-04-06T00:13:27;3.50;;;1.58;;
44046;SDS011;29713;-33.888;151.150;2023-04-06T00:15:54;1.98;;;1.10;;
44046;SDS011;29713;-33.888;151.150;2023-04-06T00:18:22;3.47;;;1.30;;
44046;SDS011;29713;-33.888;151.150;2023-04-06T00:20:49;4.53;;;1.30;;
44046;SDS011;29713;-33.888;151.150;2023-04-06T00:23:17;4.55;;;1.50;;
44046;SDS011;29713;-33.888;151.150;2023-04-06T00:25:44;2.80;;;0.98;;
44046;SDS011;29713;-33.888;151.150;2023-04-06T00:28:11;1.70;;;1.20;;
44046;SDS011;29713;-33.888;151.150;2023-04-06T00:30:39;3.90;;;1.23;;
44046;SDS011;29713;-33.888;151.150;2023-04-06T00:33:07;3.20;;;1.10;;
44046;SDS011;29713;-33.888;151.150;2023-04-06T00:35:34;1.65;;;1.17;;
44046;SDS011;29713;-33.888;151.150;2023-04-06T00:38:02;3.13;;;1.02;;
44046;SDS011;29713;-33.888;151.150;2023-04-06T00:40:29;2.08;;;0.70;;
44046;SDS011;29713;-33.888;151.150;2023-04-06T00:42:58;3.70;;;1.08;;
44046;SDS011;29713;-33.888;151.150;2023-04-06T00:45:25;2.28;;;0.90;;
44046;SDS011;29713;-33.888;151.150;2023-04-06T00:47:53;2.00;;;0.90;;
44046;SDS011;29713;-33.888;151.150;2023-04-06T00:50:20;2.30;;;0.90;;
44046;SDS011;29713;-33.888;151.150;2023-04-06T00:52:47;2.13;;;0.77;;
44046;SDS011;29713;-33.888;151.150;2023-04-06T00:55:15;2.78;;;1.05;;
44046;SDS011;29713;-33.888;151.150;2023-04-06T00:57:43;4.10;;;1.20;;
44046;SDS011;29713;-33.888;151.150;2023-04-06T01:00:10;2.92;;;0.85;;
44046;SDS011;29713;-33.888;151.150;2023-04-06T01:02:39;1.80;;;1.05;;
44046;SDS011;29713;-33.888;151.150;2023-04-06T01:05:06;2.85;;;1.40;;
44046;SDS011;29713;-33.888;151.150;2023-04-06T01:07:34;3.13;;;1.23;;
44046;SDS011;29713;-33.888;151.150;2023-04-06T01:10:01;2.55;;;0.90;;
44046;SDS011;29713;-33.888;151.150;2023-04-06T01:12:29;2.33;;;0.90;;
44046;SDS011;29713;-33.888;151.150;2023-04-06T01:14:56;3.33;;;1.17;;
44046;SDS011;29713;-33.888;151.150;2023-04-06T01:17:23;3.15;;;1.10;;
44046;SDS011;29713;-33.888;151.150;2023-04-06T01:19:54;0.98;;;0.70;;
44046;SDS011;29713;-33.888;151.150;2023-04-06T01:23:13;2.40;;;0.90;;
44046;SDS011;29713;-33.888;151.150;2023-04-06T01:25:43;1.52;;;0.90;;
44046;SDS011;29713;-33.888;151.150;2023-04-06T01:28:26;2.25;;;0.98;;
44046;SDS011;29713;-33.888;151.150;2023-04-06T01:30:58;3.25;;;0.82;;
44046;SDS011;29713;-33.888;151.150;2023-04-06T01:33:26;2.28;;;0.60;;
44046;SDS011;29713;-33.888;151.150;2023-04-06T01:35:53;3.25;;;0.70;;
44046;SDS011;29713;-33.888;151.150;2023-04-06T01:38:21;0.40;;;0.40;;
44046;SDS011;29713;-33.888;151.150;2023-04-06T01:40:48;3.80;;;0.73;;
44046;SDS011;29713;-33.888;151.150;2023-04-06T01:43:19;1.90;;;0.80;;
44046;SDS011;29713;-33.888;151.150;2023-04-06T01:45:46;0.82;;;0.47;;
44046;SDS011;29713;-33.888;151.150;2023-04-06T01:48:14;1.42;;;0.77;;
44046;SDS011;29713;-33.888;151.150;2023-04-06T01:50:41;1.98;;;0.60;;
44046;SDS011;29713;-33.888;151.150;2023-04-06T01:53:08;0.70;;;0.65;;
44046;SDS011;29713;-33.888;151.150;2023-04-06T01:55:38;1.00;;;0.57;;
44046;SDS011;29713;-33.888;151.150;2023-04-06T01:58:09;1.58;;;0.60;;
44046;SDS011;29713;-33.888;151.150;2023-04-06T02:00:36;1.77;;;0.80;;
44046;SDS011;29713;-33.888;151.150;2023-04-06T02:03:03;1.73;;;0.52;;
44046;SDS011;29713;-33.888;151.150;2023-04-06T02:05:31;4.15;;;0.75;;
44046;SDS011;29713;-33.888;151.150;2023-04-06T02:08:04;1.38;;;0.70;;
44046;SDS011;29713;-33.888;151.150;2023-04-06T02:10:32;1.33;;;0.40;;
44046;SDS011;29713;-33.888;151.150;2023-04-06T02:13:00;2.00;;;0.63;;
44046;SDS011;29713;-33.888;151.150;2023-04-06T02:15:27;3.05;;;0.70;;
44046;SDS011;29713;-33.888;151.150;2023-04-06T02:17:55;1.27;;;0.52;;
44046;SDS011;29713;-33.888;151.150;2023-04-06T02:20:23;2.30;;;0.63;;
44046;SDS011;29713;-33.888;151.150;2023-04-06T02:22:50;1.80;;;0.70;;
44046;SDS011;29713;-33.888;151.150;2023-04-06T02:25:18;1.25;;;0.70;;
44046;SDS011;29713;-33.888;151.150;2023-04-06T02:27:45;1.20;;;0.65;;
44046;SDS011;29713;-33.888;151.150;2023-04-06T02:30:12;1.95;;;0.80;;
44046;SDS011;29713;-33.888;151.150;2023-04-06T02:32:40;2.20;;;1.02;;
44046;SDS011;29713;-33.888;151.150;2023-04-06T02:35:07;1.90;;;0.90;;
44046;SDS011;29713;-33.888;151.150;2023-04-06T02:37:35;3.30;;;1.40;;
44046;SDS011;29713;-33.888;151.150;2023-04-06T02:40:02;3.33;;;1.52;;
44046;SDS011;29713;-33.888;151.150;2023-04-06T02:42:31;2.80;;;1.27;;
44046;SDS011;29713;-33.888;151.150;2023-04-06T02:45:00;3.28;;;1.38;;
44046;SDS011;29713;-33.888;151.150;2023-04-06T02:47:27;3.38;;;1.20;;
44046;SDS011;29713;-33.888;151.150;2023-04-06T02:49:55;4.78;;;1.27;;
44046;SDS011;29713;-33.888;151.150;2023-04-06T02:52:22;4.18;;;1.30;;
44046;SDS011;29713;-33.888;151.150;2023-04-06T02:54:49;2.88;;;0.93;;
44046;SDS011;29713;-33.888;151.150;2023-04-06T02:57:17;1.77;;;1.23;;
44046;SDS011;29713;-33.888;151.150;2023-04-06T02:59:44;4.90;;;1.40;;
44046;SDS011;29713;-33.888;151.150;2023-04-06T03:02:11;4.88;;;1.13;;
44046;SDS011;29713;-33.888;151.150;2023-04-06T03:04:39;3.53;;;0.82;;
44046;SDS011;29713;-33.888;151.150;2023-04-06T03:07:06;3.47;;;1.50;;
44046;SDS011;29713;-33.888;151.150;2023-04-06T03:09:34;5.90;;;1.15;;
44046;SDS011;29713;-33.888;151.150;2023-04-06T03:12:03;5.85;;;1.17;;
44046;SDS011;29713;-33.888;151.150;2023-04-06T03:14:30;1.83;;;1.30;;
44046;SDS011;29713;-33.888;151.150;2023-04-06T03:16:57;2.13;;;1.20;;
44046;SDS011;29713;-33.888;151.150;2023-04-06T03:19:25;4.45;;;1.30;;
44046;SDS011;29713;-33.888;151.150;2023-04-06T03:21:52;1.98;;;1.02;;
44046;SDS011;29713;-33.888;151.150;2023-04-06T03:24:20;5.85;;;1.20;;
44046;SDS011;29713;-33.888;151.150;2023-04-06T03:26:47;6.72;;;1.10;;
44046;SDS011;29713;-33.888;151.150;2023-04-06T03:29:14;4.35;;;1.02;;
44046;SDS011;29713;-33.888;151.150;2023-04-06T03:31:42;4.05;;;0.98;;
44046;SDS011;29713;-33.888;151.150;2023-04-06T03:34:09;3.70;;;1.05;;
44046;SDS011;29713;-33.888;151.150;2023-04-06T03:36:36;2.65;;;1.10;;
44046;SDS011;29713;-33.888;151.150;2023-04-06T03:39:04;3.00;;;1.08;;
44046;SDS011;29713;-33.888;151.150;2023-04-06T03:41:31;1.52;;;0.65;;
44046;SDS011;29713;-33.888;151.150;2023-04-06T03:43:59;2.78;;;0.80;;
44046;SDS011;29713;-33.888;151.150;2023-04-06T03:46:26;4.30;;;1.00;;
44046;SDS011;29713;-33.888;151.150;2023-04-06T03:48:53;2.05;;;0.93;;
44046;SDS011;29713;-33.888;151.150;2023-04-06T03:51:21;1.42;;;0.60;;
44046;SDS011;29713;-33.888;151.150;2023-04-06T03:53:48;2.47;;;0.70;;
44046;SDS011;29713;-33.888;151.150;2023-04-06T03:56:15;2.38;;;0.70;;
44046;SDS011;29713;-33.888;151.150;2023-04-06T03:58:43;3.53;;;1.13;;
44046;SDS011;29713;-33.888;151.150;2023-04-06T04:01:10;2.80;;;0.60;;
44046;SDS011;29713;-33.888;151.150;2023-04-06T04:03:38;3.90;;;1.08;;
44046;SDS011;29713;-33.888;151.150;2023-04-06T04:06:05;1.58;;;0.57;;
44046;SDS011;29713;-33.888;151.150;2023-04-06T04:08:32;2.38;;;0.65;;
44046;SDS011;29713;-33.888;151.150;2023-04-06T04:11:01;2.38;;;0.73;;
44046;SDS011;29713;-33.888;151.150;2023-04-06T04:13:28;2.33;;;0.82;;
44046;SDS011;29713;-33.888;151.150;2023-04-06T04:15:55;0.80;;;0.68;;
44046;SDS011;29713;-33.888;151.150;2023-04-06T04:18:23;2.13;;;0.70;;
44046;SDS011;29713;-33.888;151.150;2023-04-06T04:20:51;2.25;;;0.93;;
44046;SDS011;29713;-33.888;151.150;2023-04-06T04:23:18;2.22;;;0.75;;
44046;SDS011;29713;-33.888;151.150;2023-04-06T04:25:45;3.20;;;0.90;;
44046;SDS011;29713;-33.888;151.150;2023-04-06T04:28:13;1.83;;;0.70;;
44046;SDS011;29713;-33.888;151.150;2023-04-06T04:30:40;1.75;;;0.60;;
44046;SDS011;29713;-33.888;151.150;2023-04-06T04:33:07;1.45;;;0.52;;
44046;SDS011;29713;-33.888;151.150;2023-04-06T04:35:35;2.28;;;0.68;;
44046;SDS011;29713;-33.888;151.150;2023-04-06T04:38:02;2.05;;;0.80;;
44046;SDS011;29713;-33.888;151.150;2023-04-06T04:40:29;1.10;;;0.45;;
44046;SDS011;29713;-33.888;151.150;2023-04-06T04:42:56;3.42;;;0.75;;
44046;SDS011;29713;-33.888;151.150;2023-04-06T04:45:24;2.17;;;0.80;;
44046;SDS011;29713;-33.888;151.150;2023-04-06T04:47:51;1.52;;;0.80;;
44046;SDS011;29713;-33.888;151.150;2023-04-06T04:50:18;3.03;;;0.90;;
44046;SDS011;29713;-33.888;151.150;2023-04-06T04:52:49;2.88;;;0.70;;
44046;SDS011;29713;-33.888;151.150;2023-04-06T04:55:16;2.17;;;0.82;;
44046;SDS011;29713;-33.888;151.150;2023-04-06T04:57:43;1.50;;;0.70;;
44046;SDS011;29713;-33.888;151.150;2023-04-06T05:00:11;3.05;;;0.80;;
44046;SDS011;29713;-33.888;151.150;2023-04-06T05:02:39;4.28;;;0.70;;
44046;SDS011;29713;-33.888;151.150;2023-04-06T05:05:06;1.58;;;0.75;;
44046;SDS011;29713;-33.888;151.150;2023-04-06T05:07:34;1.33;;;0.65;;
44046;SDS011;29713;-33.888;151.150;2023-04-06T05:10:01;2.38;;;0.95;;
44046;SDS011;29713;-33.888;151.150;2023-04-06T05:12:29;2.63;;;0.68;;
44046;SDS011;29713;-33.888;151.150;2023-04-06T05:14:56;3.92;;;0.90;;
44046;SDS011;29713;-33.888;151.150;2023-04-06T05:17:23;2.72;;;0.80;;
44046;SDS011;29713;-33.888;151.150;2023-04-06T05:19:51;5.43;;;1.10;;
44046;SDS011;29713;-33.888;151.150;2023-04-06T05:22:18;2.70;;;0.90;;
44046;SDS011;29713;-33.888;151.150;2023-04-06T05:24:46;3.22;;;0.93;;
44046;SDS011;29713;-33.888;151.150;2023-04-06T05:27:13;0.77;;;0.70;;
44046;SDS011;29713;-33.888;151.150;2023-04-06T05:29:40;1.80;;;0.77;;
44046;SDS011;29713;-33.888;151.150;2023-04-06T05:32:10;2.70;;;0.85;;
44046;SDS011;29713;-33.888;151.150;2023-04-06T05:34:38;3.35;;;0.90;;
44046;SDS011;29713;-33.888;151.150;2023-04-06T05:37:08;1.95;;;0.65;;
44046;SDS011;29713;-33.888;151.150;2023-04-06T05:39:36;3.67;;;0.90;;
44046;SDS011;29713;-33.888;151.150;2023-04-06T05:42:06;3.30;;;0.80;;
44046;SDS011;29713;-33.888;151.150;2023-04-06T05:44:33;1.85;;;0.70;;
44046;SDS011;29713;-33.888;151.150;2023-04-06T05:47:02;1.83;;;0.70;;
44046;SDS011;29713;-33.888;151.150;2023-04-06T05:49:30;1.42;;;0.60;;
44046;SDS011;29713;-33.888;151.150;2023-04-06T05:51:57;9.57;;;1.13;;
44046;SDS011;29713;-33.888;151.150;2023-04-06T05:54:24;2.15;;;0.73;;
44046;SDS011;29713;-33.888;151.150;2023-04-06T05:56:54;2.67;;;0.70;;
44046;SDS011;29713;-33.888;151.150;2023-04-06T05:59:21;2.97;;;0.60;;
44046;SDS011;29713;-33.888;151.150;2023-04-06T06:01:49;1.90;;;0.70;;
44046;SDS011;29713;-33.888;151.150;2023-04-06T06:04:16;1.40;;;0.50;;
44046;SDS011;29713;-33.888;151.150;2023-04-06T06:06:43;2.55;;;0.50;;
44046;SDS011;29713;-33.888;151.150;2023-04-06T06:09:11;1.73;;;0.55;;
44046;SDS011;29713;-33.888;151.150;2023-04-06T06:11:38;1.48;;;0.65;;
44046;SDS011;29713;-33.888;151.150;2023-04-06T06:14:06;3.92;;;0.70;;
44046;SDS011;29713;-33.888;151.150;2023-04-06T06:16:33;1.90;;;0.70;;
44046;SDS011;29713;-33.888;151.150;2023-04-06T06:19:01;1.45;;;0.50;;
44046;SDS011;29713;-33.888;151.150;2023-04-06T06:21:28;2.25;;;0.75;;
44046;SDS011;29713;-33.888;151.150;2023-04-06T06:23:56;1.83;;;0.80;;
44046;SDS011;29713;-33.888;151.150;2023-04-06T06:26:24;2.90;;;0.88;;
44046;SDS011;29713;-33.888;151.150;2023-04-06T06:28:51;2.72;;;0.60;;
44046;SDS011;29713;-33.888;151.150;2023-04-06T06:31:19;2.30;;;0.70;;
44046;SDS011;29713;-33.888;151.150;2023-04-06T06:33:50;2.88;;;0.73;;
44046;SDS011;29713;-33.888;151.150;2023-04-06T06:36:18;1.63;;;0.50;;
44046;SDS011;29713;-33.888;151.150;2023-04-06T06:38:45;1.75;;;0.50;;
44046;SDS011;29713;-33.888;151.150;2023-04-06T06:41:12;1.55;;;0.50;;
44046;SDS011;29713;-33.888;151.150;2023-04-06T06:43:40;0.95;;;0.57;;
44046;SDS011;29713;-33.888;151.150;2023-04-06T06:46:07;2.72;;;0.73;;
44046;SDS011;29713;-33.888;151.150;2023-04-06T06:48:34;1.05;;;0.32;;
44046;SDS011;29713;-33.888;151.150;2023-04-06T06:51:02;2.05;;;0.80;;
44046;SDS011;29713;-33.888;151.150;2023-04-06T06:53:29;12.43;;;1.15;;
44046;SDS011;29713;-33.888;151.150;2023-04-06T06:55:57;4.20;;;1.00;;
44046;SDS011;29713;-33.888;151.150;2023-04-06T06:58:24;3.17;;;0.60;;
44046;SDS011;29713;-33.888;151.150;2023-04-06T07:00:55;4.28;;;1.17;;
44046;SDS011;29713;-33.888;151.150;2023-04-06T07:03:25;1.90;;;0.80;;
44046;SDS011;29713;-33.888;151.150;2023-04-06T07:05:53;1.88;;;0.70;;
44046;SDS011;29713;-33.888;151.150;2023-04-06T07:08:22;2.25;;;0.75;;
44046;SDS011;29713;-33.888;151.150;2023-04-06T07:10:50;5.38;;;0.90;;
44046;SDS011;29713;-33.888;151.150;2023-04-06T07:13:18;2.05;;;0.77;;
44046;SDS011;29713;-33.888;151.150;2023-04-06T07:15:49;1.75;;;0.52;;
44046;SDS011;29713;-33.888;151.150;2023-04-06T07:18:17;3.88;;;0.90;;
44046;SDS011;29713;-33.888;151.150;2023-04-06T07:20:46;1.33;;;0.52;;
44046;SDS011;29713;-33.888;151.150;2023-04-06T07:23:13;1.58;;;0.70;;
44046;SDS011;29713;-33.888;151.150;2023-04-06T07:25:41;3.90;;;0.98;;
44046;SDS011;29713;-33.888;151.150;2023-04-06T07:28:08;2.53;;;1.08;;
44046;SDS011;29713;-33.888;151.150;2023-04-06T07:30:36;2.35;;;0.90;;
44046;SDS011;29713;-33.888;151.150;2023-04-06T07:33:04;3.65;;;0.80;;
44046;SDS011;29713;-33.888;151.150;2023-04-06T07:35:31;1.67;;;1.00;;
44046;SDS011;29713;-33.888;151.150;2023-04-06T07:38:00;1.85;;;0.77;;
44046;SDS011;29713;-33.888;151.150;2023-04-06T07:40:27;2.17;;;1.10;;
44046;SDS011;29713;-33.888;151.150;2023-04-06T07:42:57;2.83;;;1.27;;
44046;SDS011;29713;-33.888;151.150;2023-04-06T07:45:24;4.07;;;1.55;;
44046;SDS011;29713;-33.888;151.150;2023-04-06T07:47:52;4.18;;;1.40;;
44046;SDS011;29713;-33.888;151.150;2023-04-06T07:50:19;2.38;;;0.80;;
44046;SDS011;29713;-33.888;151.150;2023-04-06T07:52:46;4.07;;;1.27;;
44046;SDS011;29713;-33.888;151.150;2023-04-06T07:55:14;2.13;;;1.10;;
44046;SDS011;29713;-33.888;151.150;2023-04-06T07:57:41;3.40;;;1.30;;
44046;SDS011;29713;-33.888;151.150;2023-04-06T08:00:08;6.32;;;1.58;;
44046;SDS011;29713;-33.888;151.150;2023-04-06T08:02:37;4.10;;;1.40;;
44046;SDS011;29713;-33.888;151.150;2023-04-06T08:05:04;5.63;;;1.45;;
44046;SDS011;29713;-33.888;151.150;2023-04-06T08:07:32;5.22;;;1.50;;
44046;SDS011;29713;-33.888;151.150;2023-04-06T08:10:01;6.55;;;1.50;;
44046;SDS011;29713;-33.888;151.150;2023-04-06T08:12:28;3.95;;;1.50;;
44046;SDS011;29713;-33.888;151.150;2023-04-06T08:14:59;4.82;;;1.80;;
44046;SDS011;29713;-33.888;151.150;2023-04-06T08:17:28;4.55;;;2.00;;
44046;SDS011;29713;-33.888;151.150;2023-04-06T08:19:56;4.78;;;1.88;;
44046;SDS011;29713;-33.888;151.150;2023-04-06T08:22:24;9.52;;;1.90;;
44046;SDS011;29713;-33.888;151.150;2023-04-06T08:24:52;4.05;;;1.30;;
44046;SDS011;29713;-33.888;151.150;2023-04-06T08:27:20;6.72;;;1.73;;
44046;SDS011;29713;-33.888;151.150;2023-04-06T08:29:49;7.15;;;1.70;;
44046;SDS011;29713;-33.888;151.150;2023-04-06T08:32:17;5.80;;;1.50;;
44046;SDS011;29713;-33.888;151.150;2023-04-06T08:34:44;6.35;;;1.60;;
44046;SDS011;29713;-33.888;151.150;2023-04-06T08:37:12;4.70;;;1.98;;
44046;SDS011;29713;-33.888;151.150;2023-04-06T08:39:39;6.82;;;1.83;;
44046;SDS011;29713;-33.888;151.150;2023-04-06T08:42:10;4.00;;;1.52;;
44046;SDS011;29713;-33.888;151.150;2023-04-06T08:44:45;7.00;;;1.30;;
44046;SDS011;29713;-33.888;151.150;2023-04-06T08:47:14;5.45;;;1.42;;
44046;SDS011;29713;-33.888;151.150;2023-04-06T08:49:42;3.10;;;1.40;;
44046;SDS011;29713;-33.888;151.150;2023-04-06T08:52:10;5.38;;;2.03;;
44046;SDS011;29713;-33.888;151.150;2023-04-06T08:54:38;6.63;;;2.30;;
44046;SDS011;29713;-33.888;151.150;2023-04-06T08:57:05;4.97;;;2.22;;
44046;SDS011;29713;-33.888;151.150;2023-04-06T08:59:35;6.03;;;2.22;;
44046;SDS011;29713;-33.888;151.150;2023-04-06T09:02:06;5.18;;;1.73;;
44046;SDS011;29713;-33.888;151.150;2023-04-06T09:04:48;8.40;;;2.05;;
44046;SDS011;29713;-33.888;151.150;2023-04-06T09:07:21;7.93;;;2.50;;
44046;SDS011;29713;-33.888;151.150;2023-04-06T09:09:49;8.60;;;2.70;;
44046;SDS011;29713;-33.888;151.150;2023-04-06T09:12:27;10.07;;;2.63;;
44046;SDS011;29713;-33.888;151.150;2023-04-06T09:14:56;10.30;;;2.70;;
44046;SDS011;29713;-33.888;151.150;2023-04-06T09:17:28;7.32;;;2.45;;
44046;SDS011;29713;-33.888;151.150;2023-04-06T09:20:02;11.98;;;2.70;;
44046;SDS011;29713;-33.888;151.150;2023-04-06T09:22:39;4.70;;;2.58;;
44046;SDS011;29713;-33.888;151.150;2023-04-06T09:25:08;6.15;;;2.55;;
44046;SDS011;29713;-33.888;151.150;2023-04-06T09:27:36;7.72;;;2.28;;
44046;SDS011;29713;-33.888;151.150;2023-04-06T09:32:49;9.07;;;2.50;;
44046;SDS011;29713;-33.888;151.150;2023-04-06T09:35:21;7.75;;;2.13;;
44046;SDS011;29713;-33.888;151.150;2023-04-06T09:37:52;5.70;;;2.00;;
44046;SDS011;29713;-33.888;151.150;2023-04-06T09:40:20;5.10;;;2.00;;
44046;SDS011;29713;-33.888;151.150;2023-04-06T09:42:49;10.18;;;2.78;;
44046;SDS011;29713;-33.888;151.150;2023-04-06T09:45:22;7.63;;;2.15;;
44046;SDS011;29713;-33.888;151.150;2023-04-06T09:47:50;4.30;;;2.40;;
44046;SDS011;29713;-33.888;151.150;2023-04-06T09:50:21;7.78;;;2.35;;
44046;SDS011;29713;-33.888;151.150;2023-04-06T09:52:50;6.78;;;2.30;;
44046;SDS011;29713;-33.888;151.150;2023-04-06T09:55:23;12.32;;;4.13;;
44046;SDS011;29713;-33.888;151.150;2023-04-06T10:00:57;10.32;;;3.85;;
44046;SDS011;29713;-33.888;151.150;2023-04-06T10:03:37;8.60;;;3.70;;
44046;SDS011;29713;-33.888;151.150;2023-04-06T10:06:11;6.28;;;3.40;;
44046;SDS011;29713;-33.888;151.150;2023-04-06T10:08:40;7.93;;;3.55;;
44046;SDS011;29713;-33.888;151.150;2023-04-06T10:11:09;9.15;;;3.45;;
44046;SDS011;29713;-33.888;151.150;2023-04-06T10:13:36;7.20;;;3.05;;
44046;SDS011;29713;-33.888;151.150;2023-04-06T10:16:04;9.82;;;3.13;;
44046;SDS011;29713;-33.888;151.150;2023-04-06T10:18:32;8.55;;;2.90;;
44046;SDS011;29713;-33.888;151.150;2023-04-06T10:21:06;6.60;;;2.97;;
44046;SDS011;29713;-33.888;151.150;2023-04-06T10:23:45;6.10;;;2.97;;
44046;SDS011;29713;-33.888;151.150;2023-04-06T10:26:19;8.48;;;3.17;;
44046;SDS011;29713;-33.888;151.150;2023-04-06T10:28:47;7.60;;;3.08;;
44046;SDS011;29713;-33.888;151.150;2023-04-06T10:31:23;8.05;;;2.97;;
44046;SDS011;29713;-33.888;151.150;2023-04-06T10:33:55;9.52;;;3.53;;
44046;SDS011;29713;-33.888;151.150;2023-04-06T10:36:27;7.70;;;3.28;;
44046;SDS011;29713;-33.888;151.150;2023-04-06T10:39:00;7.75;;;2.92;;
44046;SDS011;29713;-33.888;151.150;2023-04-06T10:41:32;6.80;;;3.38;;
44046;SDS011;29713;-33.888;151.150;2023-04-06T10:44:01;6.88;;;3.20;;
44046;SDS011;29713;-33.888;151.150;2023-04-06T10:46:29;8.30;;;3.35;;
44046;SDS011;29713;-33.888;151.150;2023-04-06T10:48:57;8.65;;;3.20;;
44046;SDS011;29713;-33.888;151.150;2023-04-06T10:51:37;8.32;;;3.28;;
44046;SDS011;29713;-33.888;151.150;2023-04-06T10:54:06;8.55;;;3.33;;
44046;SDS011;29713;-33.888;151.150;2023-04-06T10:56:35;8.13;;;3.50;;
44046;SDS011;29713;-33.888;151.150;2023-04-06T10:59:05;9.05;;;3.20;;
44046;SDS011;29713;-33.888;151.150;2023-04-06T11:01:33;12.02;;;3.47;;
44046;SDS011;29713;-33.888;151.150;2023-04-06T11:04:01;8.60;;;3.25;;
44046;SDS011;29713;-33.888;151.150;2023-04-06T11:06:29;10.13;;;3.67;;
44046;SDS011;29713;-33.888;151.150;2023-04-06T11:08:57;6.78;;;3.70;;
44046;SDS011;29713;-33.888;151.150;2023-04-06T11:11:26;9.25;;;3.40;;
44046;SDS011;29713;-33.888;151.150;2023-04-06T11:13:54;8.00;;;3.22;;
44046;SDS011;29713;-33.888;151.150;2023-04-06T11:16:26;6.43;;;3.00;;
44046;SDS011;29713;-33.888;151.150;2023-04-06T11:18:54;8.48;;;3.80;;
44046;SDS011;29713;-33.888;151.150;2023-04-06T11:21:32;11.05;;;3.33;;
44046;SDS011;29713;-33.888;151.150;2023-04-06T11:26:53;9.55;;;3.78;;
44046;SDS011;29713;-33.888;151.150;2023-04-06T11:29:24;6.75;;;3.03;;
44046;SDS011;29713;-33.888;151.150;2023-04-06T11:34:28;12.52;;;3.67;;
44046;SDS011;29713;-33.888;151.150;2023-04-06T11:37:00;9.32;;;3.58;;
44046;SDS011;29713;-33.888;151.150;2023-04-06T11:39:31;12.45;;;3.95;;
44046;SDS011;29713;-33.888;151.150;2023-04-06T11:42:03;7.05;;;3.20;;
44046;SDS011;29713;-33.888;151.150;2023-04-06T11:47:04;11.07;;;3.92;;
44046;SDS011;29713;-33.888;151.150;2023-04-06T11:49:34;10.10;;;3.60;;
44046;SDS011;29713;-33.888;151.150;2023-04-06T11:52:13;10.80;;;3.75;;
44046;SDS011;29713;-33.888;151.150;2023-04-06T11:54:44;8.75;;;3.45;;
44046;SDS011;29713;-33.888;151.150;2023-04-06T11:57:13;10.45;;;3.67;;
44046;SDS011;29713;-33.888;151.150;2023-04-06T11:59:42;8.15;;;3.50;;
44046;SDS011;29713;-33.888;151.150;2023-04-06T12:02:10;9.40;;;3.58;;
44046;SDS011;29713;-33.888;151.150;2023-04-06T12:04:37;10.32;;;3.53;;
44046;SDS011;29713;-33.888;151.150;2023-04-06T12:07:05;6.97;;;3.63;;
44046;SDS011;29713;-33.888;151.150;2023-04-06T12:09:32;9.98;;;3.70;;
44046;SDS011;29713;-33.888;151.150;2023-04-06T12:12:00;9.23;;;3.53;;
44046;SDS011;29713;-33.888;151.150;2023-04-06T12:14:27;11.68;;;4.20;;
44046;SDS011;29713;-33.888;151.150;2023-04-06T12:16:56;6.85;;;3.55;;
44046;SDS011;29713;-33.888;151.150;2023-04-06T12:19:24;8.55;;;3.70;;
44046;SDS011;29713;-33.888;151.150;2023-04-06T12:21:52;6.72;;;3.47;;
44046;SDS011;29713;-33.888;151.150;2023-04-06T12:24:20;9.95;;;3.22;;
44046;SDS011;29713;-33.888;151.150;2023-04-06T12:26:47;8.27;;;4.00;;
44046;SDS011;29713;-33.888;151.150;2023-04-06T12:29:15;10.98;;;4.10;;
44046;SDS011;29713;-33.888;151.150;2023-04-06T12:31:42;8.88;;;3.95;;
44046;SDS011;29713;-33.888;151.150;2023-04-06T12:34:10;8.40;;;4.00;;
44046;SDS011;29713;-33.888;151.150;2023-04-06T12:36:37;7.70;;;3.75;;
44046;SDS011;29713;-33.888;151.150;2023-04-06T12:39:05;8.05;;;3.22;;
44046;SDS011;29713;-33.888;151.150;2023-04-06T12:41:33;7.38;;;3.65;;
44046;SDS011;29713;-33.888;151.150;2023-04-06T12:44:01;8.88;;;3.33;;
44046;SDS011;29713;-33.888;151.150;2023-04-06T12:46:29;8.60;;;3.60;;
44046;SDS011;29713;-33.888;151.150;2023-04-06T12:48:56;8.48;;;2.97;;
44046;SDS011;29713;-33.888;151.150;2023-04-06T12:51:26;6.88;;;2.97;;
44046;SDS011;29713;-33.888;151.150;2023-04-06T12:53:54;5.75;;;2.88;;
44046;SDS011;29713;-33.888;151.150;2023-04-06T12:56:21;6.07;;;3.05;;
44046;SDS011;29713;-33.888;151.150;2023-04-06T12:58:50;7.43;;;2.60;;
44046;SDS011;29713;-33.888;151.150;2023-04-06T13:01:18;8.88;;;2.97;;
44046;SDS011;29713;-33.888;151.150;2023-04-06T13:03:45;6.80;;;2.83;;
44046;SDS011;29713;-33.888;151.150;2023-04-06T13:06:13;8.88;;;3.47;;
44046;SDS011;29713;-33.888;151.150;2023-04-06T13:08:40;6.93;;;2.45;;
44046;SDS011;29713;-33.888;151.150;2023-04-06T13:11:08;5.32;;;2.65;;
44046;SDS011;29713;-33.888;151.150;2023-04-06T13:13:35;6.38;;;2.90;;
44046;SDS011;29713;-33.888;151.150;2023-04-06T13:16:04;7.30;;;2.70;;
44046;SDS011;29713;-33.888;151.150;2023-04-06T13:18:34;5.22;;;2.35;;
44046;SDS011;29713;-33.888;151.150;2023-04-06T13:21:04;6.68;;;2.30;;
44046;SDS011;29713;-33.888;151.150;2023-04-06T13:23:32;4.88;;;2.42;;
44046;SDS011;29713;-33.888;151.150;2023-04-06T13:26:00;5.43;;;2.10;;
44046;SDS011;29713;-33.888;151.150;2023-04-06T13:28:35;5.13;;;2.20;;
44046;SDS011;29713;-33.888;151.150;2023-04-06T13:31:04;10.57;;;2.50;;
44046;SDS011;29713;-33.888;151.150;2023-04-06T13:33:32;5.82;;;2.20;;
44046;SDS011;29713;-33.888;151.150;2023-04-06T13:36:00;6.30;;;2.17;;
44046;SDS011;29713;-33.888;151.150;2023-04-06T13:38:27;7.63;;;2.15;;
44046;SDS011;29713;-33.888;151.150;2023-04-06T13:40:55;4.68;;;1.90;;
44046;SDS011;29713;-33.888;151.150;2023-04-06T13:43:23;8.02;;;2.40;;
44046;SDS011;29713;-33.888;151.150;2023-04-06T13:45:53;6.00;;;2.13;;
44046;SDS011;29713;-33.888;151.150;2023-04-06T13:48:21;5.22;;;2.33;;
44046;SDS011;29713;-33.888;151.150;2023-04-06T13:50:48;5.10;;;2.28;;
44046;SDS011;29713;-33.888;151.150;2023-04-06T13:53:16;7.68;;;2.03;;
44046;SDS011;29713;-33.888;151.150;2023-04-06T13:55:43;6.13;;;1.77;;
44046;SDS011;29713;-33.888;151.150;2023-04-06T13:58:18;8.55;;;2.50;;
44046;SDS011;29713;-33.888;151.150;2023-04-06T14:00:46;6.32;;;2.05;;
44046;SDS011;29713;-33.888;151.150;2023-04-06T14:03:13;6.05;;;2.28;;
44046;SDS011;29713;-33.888;151.150;2023-04-06T14:05:40;5.57;;;2.03;;
44046;SDS011;29713;-33.888;151.150;2023-04-06T14:08:08;6.22;;;2.50;;
44046;SDS011;29713;-33.888;151.150;2023-04-06T14:10:39;3.75;;;2.00;;
44046;SDS011;29713;-33.888;151.150;2023-04-06T14:13:07;6.30;;;2.03;;
44046;SDS011;29713;-33.888;151.150;2023-04-06T14:15:35;7.60;;;2.38;;
44046;SDS011;29713;-33.888;151.150;2023-04-06T14:18:03;7.47;;;2.25;;
44046;SDS011;29713;-33.888;151.150;2023-04-06T14:20:31;9.30;;;1.90;;
44046;SDS011;29713;-33.888;151.150;2023-04-06T14:23:02;8.73;;;4.75;;
44046;SDS011;29713;-33.888;151.150;2023-04-06T14:25:29;7.60;;;2.65;;
44046;SDS011;29713;-33.888;151.150;2023-04-06T14:27:57;5.45;;;2.00;;
44046;SDS011;29713;-33.888;151.150;2023-04-06T14:30:25;5.65;;;2.42;;